Flight Track Log - Related Links

Times and Time Zones

All times are in EDT time to prevent confusion due to time zone crossing. See the RPA3143 flight status page for this flight to view local times or setup timezone preferences in your user account.


Time Position Orientation Groundspeed Altitude Reporting Facility
EDT Latitude Longitude Course Direction KTS MPH feet Rate Location/Type
Tue 07:59:23 AM 38.9000 -77.0667 233° Southwest 185 213 1,800  Level Potomac TRACON
Tue 08:00:17 AM 38.9500 -77.1167 322° Northwest 256 295 3,500 2,611 Climbing Potomac TRACON
Tue 08:01:00 AM 38.5553 -77.3614 218° Southwest  Level FlightAware Approximate
Tue 08:01:11 AM 38.9833 -77.1833 303° West 269 310 6,500  Level Potomac TRACON
Tue 08:02:00 AM 38.4826 -77.4486 225° Southwest  Level FlightAware Approximate
Tue 08:02:11 AM 38.9500 -77.2667 243° Southwest 296 341 9,200  Level Potomac TRACON
Tue 08:03:00 AM 38.4108 -77.5363 201° Southwest  Level FlightAware Approximate
Tue 08:03:05 AM 38.8833 -77.3000 201° Southwest 325 374 10,700  Level Potomac TRACON
Tue 08:04:00 AM 38.3406 -77.6212 233° Southwest  Level FlightAware Approximate
Tue 08:04:05 AM 38.7833 -77.3500 201° Southwest 349 402 13,300  Level Potomac TRACON
Tue 08:05:06 AM 38.7000 -77.4000 205° Southwest 353 406 15,300 1,775 Climbing Potomac TRACON
Tue 08:06:54 AM 38.5356 -77.4919 204° Southwest 365 420 18,300 1,679 Climbing Washington Center
Tue 08:07:54 AM 38.4408 -77.5453 204° Southwest 371 427 20,000 1,780 Climbing Washington Center
Tue 08:08:52 AM 38.3542 -77.6303 218° Southwest 387 445 21,800 1,729 Climbing Washington Center
Tue 08:09:52 AM 38.2772 -77.7342 227° Southwest 392 451 23,400 1,450 Climbing Washington Center
Tue 08:10:52 AM 38.1878 -77.8267 219° Southwest 404 465 24,700 1,240 Climbing Washington Center
Tue 08:11:53 AM 38.0986 -77.9217 220° Southwest 415 478 25,900 1,250 Climbing Washington Center
Tue 08:12:52 AM 38.0133 -78.0058 218° Southwest 426 490 27,200 1,150 Climbing Washington Center
Tue 08:13:53 AM 37.9092 -78.1106 218° Southwest 432 497 28,200 1,041 Climbing Washington Center
Tue 08:14:53 AM 37.8278 -78.2025 222° Southwest 432 497 29,300 942 Climbing Washington Center
Tue 08:15:54 AM 37.7319 -78.3017 219° Southwest 443 510 30,100 843 Climbing Washington Center
Tue 08:16:54 AM 37.6336 -78.4003 218° Southwest 448 516 31,000 850 Climbing Washington Center
Tue 08:17:54 AM 37.5331 -78.5014 219° Southwest 453 521 31,800 966 Climbing Washington Center
Tue 08:18:52 AM 37.4261 -78.6097 219° Southwest 458 527 32,900 1,017 Climbing Washington Center
Tue 08:19:52 AM 37.3256 -78.7103 219° Southwest 458 527 33,800 541 Climbing Washington Center
Tue 08:20:54 AM 37.2247 -78.8106 218° Southwest 458 527 34,000 100 Climbing Washington Center
Tue 08:21:52 AM 37.1261 -78.9106 219° Southwest 458 527 34,000  Level Washington Center
Tue 08:22:52 AM 37.0317 -79.0053 219° Southwest 470 541 34,000  Level Washington Center
Tue 08:23:52 AM 36.9286 -79.1100 219° Southwest 470 541 34,000  Level Washington Center
Tue 08:24:53 AM 36.8233 -79.2114 218° Southwest 481 554 34,000  Level Washington Center
Tue 08:25:53 AM 36.7178 -79.3156 218° Southwest 481 554 34,000  Level Washington Center
Tue 08:27:43 AM 36.5131 -79.5158 218° Southwest 493 567 34,000  Level Atlanta Center
Tue 08:28:43 AM 36.4064 -79.6225 219° Southwest 498 573 34,000  Level Atlanta Center
Tue 08:29:43 AM 36.3136 -79.7125 218° Southwest 493 567 34,000  Level Atlanta Center
Tue 08:30:43 AM 36.2047 -79.8161 218° Southwest 493 567 34,000  Level Atlanta Center
Tue 08:31:43 AM 36.1017 -79.9192 219° Southwest 493 567 34,000  Level Atlanta Center
Tue 08:32:43 AM 35.9858 -80.0047 211° Southwest 493 567 34,000  Level Atlanta Center
Tue 08:33:43 AM 35.8503 -80.0756 203° Southwest 487 560 34,000  Level Atlanta Center
Tue 08:34:43 AM 35.7250 -80.1353 201° Southwest 487 560 34,000  Level Atlanta Center
Tue 08:35:43 AM 35.6164 -80.1942 204° Southwest 482 555 34,000  Level Atlanta Center
Tue 08:36:43 AM 35.4906 -80.2383 196° South 482 555 34,000  Level Atlanta Center
Tue 08:37:43 AM 35.3456 -80.2806 193° South 482 555 34,000  Level Atlanta Center
Tue 08:38:43 AM 35.2175 -80.3194 194° South 482 555 34,000  Level Atlanta Center
Tue 08:40:49 AM 34.9611 -80.3975 194° South 482 555 34,000  Level Jacksonville Center
Tue 08:41:49 AM 34.8325 -80.4342 193° South 487 560 34,000  Level Jacksonville Center
Tue 08:42:49 AM 34.7083 -80.4758 195° South 475 547 34,000  Level Jacksonville Center
Tue 08:43:49 AM 34.5797 -80.5122 193° South 470 541 34,000  Level Jacksonville Center
Tue 08:44:49 AM 34.4531 -80.5483 193° South 470 541 34,000  Level Jacksonville Center
Tue 08:45:49 AM 34.3244 -80.5844 193° South 470 541 34,000  Level Jacksonville Center
Tue 08:46:49 AM 34.1978 -80.6231 194° South 470 541 34,000  Level Jacksonville Center
Tue 08:47:49 AM 34.0669 -80.6614 194° South 475 547 34,000  Level Jacksonville Center
Tue 08:48:49 AM 33.9383 -80.6972 193° South 475 547 34,000  Level Jacksonville Center
Tue 08:49:49 AM 33.8117 -80.7353 194° South 475 547 34,000  Level Jacksonville Center
Tue 08:50:49 AM 33.6831 -80.7711 193° South 470 541 34,000  Level Jacksonville Center
Tue 08:51:49 AM 33.5561 -80.8064 193° South 470 541 34,000  Level Jacksonville Center
Tue 08:52:49 AM 33.4294 -80.8444 194° South 470 541 34,000  Level Jacksonville Center
Tue 08:53:49 AM 33.3028 -80.8794 193° South 470 541 34,000  Level Jacksonville Center
Tue 08:54:49 AM 33.1739 -80.9147 193° South 470 541 34,000  Level Jacksonville Center
Tue 08:55:49 AM 33.0472 -80.9522 194° South 470 541 34,000  Level Jacksonville Center
Tue 08:56:49 AM 32.9206 -80.9872 193° South 470 541 34,000  Level Jacksonville Center
Tue 08:57:49 AM 32.7936 -81.0244 194° South 470 541 34,000  Level Jacksonville Center
Tue 08:58:49 AM 32.6586 -81.0617 193° South 462 532 34,000  Level Jacksonville Center
Tue 08:59:49 AM 32.5442 -81.0936 193° South 462 532 34,000  Level Jacksonville Center
Tue 09:00:49 AM 32.3986 -81.1333 193° South 479 551 34,000  Level Jacksonville Center
Tue 09:01:49 AM 32.2717 -81.1678 193° South 486 559 34,000  Level Jacksonville Center
Tue 09:02:49 AM 32.1447 -81.1972 191° South 469 540 34,000  Level Jacksonville Center
Tue 09:03:49 AM 32.0133 -81.1969 180° South 466 536 34,000  Level Jacksonville Center
Tue 09:04:49 AM 31.8858 -81.1922 178° South 461 531 34,000  Level Jacksonville Center
Tue 09:05:49 AM 31.7689 -81.1894 179° South 467 537 34,000  Level Jacksonville Center
Tue 09:06:49 AM 31.6247 -81.1847 178° South 462 532 34,000  Level Jacksonville Center
Tue 09:07:49 AM 31.4972 -81.1797 178° South 467 537 34,000  Level Jacksonville Center
Tue 09:08:49 AM 31.3783 -81.1744 178° South 467 537 34,000  Level Jacksonville Center
Tue 09:09:49 AM 31.2361 -81.1747 180° South 467 537 34,000  Level Jacksonville Center
Tue 09:10:49 AM 31.1067 -81.1700 178° South 474 545 34,000  Level Jacksonville Center
Tue 09:11:49 AM 30.9731 -81.1650 178° South 473 544 34,000  Level Jacksonville Center
Tue 09:12:49 AM 30.8478 -81.1600 178° South 473 544 34,000  Level Jacksonville Center
Tue 09:13:49 AM 30.7161 -81.1575 179° South 473 544 34,000 -100 Level Jacksonville Center
Tue 09:14:49 AM 30.5867 -81.1528 178° South 473 544 33,800 -650 Descending Jacksonville Center
Tue 09:15:49 AM 30.4822 -81.1497 179° South 473 544 32,700 -1,200 Descending Jacksonville Center
Tue 09:16:49 AM 30.3422 -81.1453 178° South 467 537 31,400 -1,300 Descending Jacksonville Center
Tue 09:17:49 AM 30.2128 -81.1403 178° South 467 537 30,100 -1,300 Descending Jacksonville Center
Tue 09:18:49 AM 30.0792 -81.1403 180° South 467 537 28,800 -1,300 Descending Jacksonville Center
Tue 09:19:49 AM 29.9536 -81.1331 177° South 467 537 27,500 -1,300 Descending Jacksonville Center
Tue 09:20:49 AM 29.8283 -81.1306 179° South 460 529 26,200 -1,300 Descending Jacksonville Center
Tue 09:21:49 AM 29.7053 -81.1256 178° South 455 524 24,900 -1,350 Descending Jacksonville Center
Tue 09:22:49 AM 29.5842 -81.1231 179° South 445 512 23,500 -1,850 Descending Jacksonville Center
Tue 09:23:49 AM 29.4714 -81.1178 178° South 425 489 21,200 -2,450 Descending Jacksonville Center
Tue 09:24:49 AM 29.3586 -81.1175 180° South 413 475 18,600 -2,300 Descending Jacksonville Center
Tue 09:25:49 AM 29.2542 -81.1075 175° South 402 463 16,600 -2,050 Descending Jacksonville Center
Tue 09:26:49 AM 29.1497 -81.1000 176° South 380 437 14,500 -2,000 Descending Jacksonville Center
Tue 09:27:49 AM 29.0514 -81.0944 177° South 368 423 12,600 -1,200 Descending Jacksonville Center
Tue 09:28:49 AM 28.9553 -81.0867 176° South 361 415 12,100 -350 Descending Jacksonville Center
Tue 09:29:49 AM 28.8572 -81.0908 182° South 355 409 11,900 -725 Descending Jacksonville Center
Tue 09:30:20 AM 28.8000 -81.1000 188° South 357 411 11,000 -1,187 Descending Orlando TRACON
Tue 09:31:20 AM 28.7167 -81.1333 199° South 304 350 10,100 -950 Descending Orlando TRACON
Tue 09:32:20 AM 28.6333 -81.1667 199° South 287 330 9,100 -1,339 Descending Orlando TRACON
Tue 09:33:21 AM 28.5500 -81.1833 190° South 288 331 7,400 -1,587 Descending Orlando TRACON
Tue 09:34:21 AM 28.4667 -81.1833 180° South 272 313 5,900 -1,050 Descending Orlando TRACON
Tue 09:35:21 AM 28.4000 -81.1833 180° South 226 260 5,300 -700 Descending Orlando TRACON
Tue 09:36:21 AM 28.3500 -81.2000 196° South 229 264 4,500 -1,000 Descending Orlando TRACON
Tue 09:37:27 AM 28.3000 -81.2500 221° Southwest 247 284 3,200 -1,182 Descending Orlando TRACON

Login

Don't have an account? Register now (free) for customized features, flight alerts, and more!